Time;durP1;ratioP1;P1;durP2;ratioP2;P2;SDS_P1;SDS_P2;PMS_P1;PMS_P2;Temp;Humidity;BMP_temperature;BMP_pressure;BME280_temperature;BME280_humidity;BME280_pressure;Samples;Min_cycle;Max_cycle;Signal;HPM_P1;HPM_P2
2022/04/03 00:00:33;;;;;;;5.18;2.47;;;;;;;10.37;74.58;99034.41;5110272;28;20931;-29
2022/04/03 00:03:04;;;;;;;4.15;2.30;;;;;;;10.33;74.13;99050.06;5091106;28;20126;-31
2022/04/03 00:05:38;;;;;;;5.32;2.70;;;;;;;10.10;74.68;99042.19;5109733;28;20030;-30
2022/04/03 00:08:08;;;;;;;5.40;2.72;;;;;;;9.92;76.75;99057.31;5109902;28;20492;-29
2022/04/03 00:10:35;;;;;;;4.20;2.42;;;;;;;9.87;77.40;99049.25;5091321;28;20027;-28
2022/04/03 00:13:01;;;;;;;4.30;2.30;;;;;;;10.08;76.28;99049.63;5091177;28;20066;-30
2022/04/03 00:15:26;;;;;;;4.82;2.25;;;;;;;10.00;76.17;99048.16;5091534;28;20023;-29
2022/04/03 00:17:52;;;;;;;5.72;2.63;;;;;;;10.14;75.57;99048.66;5091428;28;20036;-29
2022/04/03 00:20:19;;;;;;;5.93;2.70;;;;;;;10.01;75.41;99052.41;5109531;28;20102;-29
2022/04/03 00:22:48;;;;;;;4.40;2.47;;;;;;;9.69;76.95;99070.75;5091363;28;20111;-31
2022/04/03 00:25:14;;;;;;;5.15;2.60;;;;;;;9.35;78.18;99073.28;5109329;28;20562;-29
2022/04/03 00:27:40;;;;;;;4.60;2.40;;;;;;;9.23;78.82;99055.50;5090815;28;20023;-31
2022/04/03 00:30:07;;;;;;;4.55;2.70;;;;;;;9.37;78.37;99065.88;5109319;28;20042;-29
2022/04/03 00:32:34;;;;;;;5.65;3.03;;;;;;;9.48;78.84;99070.38;5090600;28;20518;-30
2022/04/03 00:35:00;;;;;;;5.68;2.80;;;;;;;9.56;78.79;99067.31;5109278;28;20035;-31
2022/04/03 00:37:25;;;;;;;6.95;3.00;;;;;;;9.72;78.77;99070.25;5109075;28;20415;-32
2022/04/03 00:39:50;;;;;;;5.25;3.20;;;;;;;9.67;77.91;99059.53;5109350;28;20081;-30
2022/04/03 00:42:17;;;;;;;6.07;2.97;;;;;;;9.69;77.54;99068.91;5108892;28;20427;-30
2022/04/03 00:44:43;;;;;;;6.53;2.72;;;;;;;9.65;78.09;99071.22;5090757;28;20518;-31
2022/04/03 00:47:09;;;;;;;4.88;2.60;;;;;;;9.81;77.41;99060.88;5108718;28;20023;-29
2022/04/03 00:49:35;;;;;;;7.32;2.97;;;;;;;9.73;76.83;99069.25;5090702;28;20027;-29
2022/04/03 00:52:01;;;;;;;12.63;5.38;;;;;;;9.55;77.49;99070.22;5090469;28;20031;-36
2022/04/03 00:54:26;;;;;;;27.38;12.45;;;;;;;9.73;76.07;99063.91;5109035;28;20082;-32
2022/04/03 00:56:52;;;;;;;21.10;9.25;;;;;;;9.60;76.91;99070.31;5090125;28;20114;-29
2022/04/03 00:59:17;;;;;;;7.93;4.28;;;;;;;9.44;78.21;99056.72;5108779;28;20479;-29
2022/04/03 01:01:44;;;;;;;6.97;3.00;;;;;;;9.36;78.34;99069.59;5108827;28;20028;-32
2022/04/03 01:04:10;;;;;;;5.47;2.70;;;;;;;9.10;79.46;99055.75;5090281;28;20028;-28
2022/04/03 01:06:36;;;;;;;5.13;2.65;;;;;;;9.10;80.48;99039.78;5090380;28;20039;-34
2022/04/03 01:09:03;;;;;;;4.95;2.58;;;;;;;9.14;79.44;99051.56;5090043;28;20042;-31
2022/04/03 01:11:29;;;;;;;5.55;2.30;;;;;;;8.73;80.57;99057.88;5090243;28;20495;-31
2022/04/03 01:13:54;;;;;;;4.60;2.80;;;;;;;8.19;82.87;99049.91;5090211;28;20024;-30
2022/04/03 01:16:20;;;;;;;5.55;2.80;;;;;;;8.38;82.86;99048.78;5107721;28;20192;-29
2022/04/03 01:18:46;;;;;;;6.35;2.70;;;;;;;8.53;83.07;99056.34;5089991;28;20058;-31
2022/04/03 01:21:13;;;;;;;4.88;2.50;;;;;;;8.35;83.54;99048.44;5108424;28;20032;-31
2022/04/03 01:23:38;;;;;;;4.55;2.47;;;;;;;8.40;82.56;99036.09;5108355;28;20027;-29
2022/04/03 01:26:05;;;;;;;4.25;2.30;;;;;;;8.16;82.72;99034.44;5089746;28;20073;-29
2022/04/03 01:28:31;;;;;;;4.07;2.20;;;;;;;8.36;82.62;99023.50;5108339;28;20015;-29
2022/04/03 01:30:56;;;;;;;4.40;2.35;;;;;;;8.35;82.05;99012.03;5089767;28;20050;-29
2022/04/03 01:33:22;;;;;;;4.13;2.30;;;;;;;8.73;80.55;99013.47;5108139;28;20070;-33
2022/04/03 01:35:47;;;;;;;6.13;2.65;;;;;;;8.54;79.94;98999.50;5108204;28;20472;-31
2022/04/03 01:38:13;;;;;;;5.15;2.47;;;;;;;8.36;81.49;99000.41;5107965;28;20491;-34
2022/04/03 01:40:38;;;;;;;4.18;2.40;;;;;;;8.25;82.01;98995.88;5106828;28;20557;-32
2022/04/03 01:43:09;;;;;;;5.30;2.50;;;;;;;8.22;82.05;98993.69;5089441;28;20073;-28
2022/04/03 01:45:35;;;;;;;5.28;2.75;;;;;;;8.40;82.38;99012.19;5089869;28;20099;-28
2022/04/03 01:48:01;;;;;;;5.43;2.90;;;;;;;8.41;81.89;98986.44;5089519;28;20059;-34
2022/04/03 01:50:27;;;;;;;4.68;2.42;;;;;;;8.31;82.55;98983.53;5108004;28;20031;-32
2022/04/03 01:52:53;;;;;;;4.88;2.35;;;;;;;8.07;82.68;98966.75;5089198;28;20031;-28
2022/04/03 01:55:19;;;;;;;4.45;2.50;;;;;;;8.05;83.03;98981.09;5108403;28;20042;-30
2022/04/03 01:57:45;;;;;;;4.88;2.47;;;;;;;7.98;82.71;98979.56;5072713;28;20052;-30
2022/04/03 02:00:12;;;;;;;3.83;2.45;;;;;;;7.97;83.70;98984.06;5108005;28;20023;-30
2022/04/03 02:02:40;;;;;;;4.97;2.65;;;;;;;8.00;82.54;98982.81;5089564;28;20154;-32
2022/04/03 02:05:07;;;;;;;4.78;2.70;;;;;;;8.00;81.44;98980.94;5089220;28;20080;-28
2022/04/03 02:07:33;;;;;;;4.47;2.10;;;;;;;8.17;80.36;98998.88;5089127;28;20034;-29
2022/04/03 02:10:08;;;;;;;4.53;2.47;;;;;;;8.28;80.58;99000.75;5107778;28;20027;-29
2022/04/03 02:12:37;;;;;;;5.13;2.97;;;;;;;8.61;79.28;98994.06;5107726;28;20399;-29
2022/04/03 02:15:05;;;;;;;4.50;2.38;;;;;;;8.65;77.88;99000.53;5089125;28;20063;-35
2022/04/03 02:17:31;;;;;;;10.02;2.95;;;;;;;8.55;77.54;98995.00;5106280;28;20388;-33
2022/04/03 02:19:57;;;;;;;4.90;2.58;;;;;;;8.30;77.40;98981.91;5089215;28;20484;-30
2022/04/03 02:22:22;;;;;;;5.05;2.58;;;;;;;8.38;76.81;98995.66;5107559;28;20102;-29
2022/04/03 02:24:48;;;;;;;4.97;2.85;;;;;;;8.35;76.57;98990.78;5107516;28;20032;-30
2022/04/03 02:27:13;;;;;;;7.95;4.28;;;;;;;8.23;75.70;99006.75;5090878;28;20694;-30
2022/04/03 02:29:39;;;;;;;8.27;4.20;;;;;;;8.36;75.94;99008.38;5111593;28;20058;-29
2022/04/03 02:32:04;;;;;;;6.65;3.60;;;;;;;8.32;76.57;99001.91;5111680;28;20066;-28
2022/04/03 02:34:30;;;;;;;5.45;3.20;;;;;;;8.02;76.47;98989.50;5111680;28;20075;-31
2022/04/03 02:36:55;;;;;;;7.97;3.85;;;;;;;8.09;75.93;99001.84;5111587;28;20039;-29
2022/04/03 02:39:21;;;;;;;6.55;3.45;;;;;;;8.01;75.34;99013.63;5111595;28;20758;-31
2022/04/03 02:41:47;;;;;;;5.80;3.00;;;;;;;7.80;76.90;99021.06;5111371;28;20031;-29
2022/04/03 02:44:13;;;;;;;5.72;2.90;;;;;;;7.76;77.37;98992.56;5093073;28;20028;-35
2022/04/03 02:46:39;;;;;;;4.43;2.85;;;;;;;7.95;77.07;99007.38;5092772;28;20052;-30
2022/04/03 02:49:05;;;;;;;7.05;2.88;;;;;;;7.99;77.19;98997.94;5111039;28;20483;-30
2022/04/03 02:51:30;;;;;;;6.28;3.33;;;;;;;8.02;76.53;98992.16;5092773;28;20072;-28
2022/04/03 02:53:56;;;;;;;9.32;3.90;;;;;;;8.12;75.89;99006.72;5111700;28;20110;-31
2022/04/03 02:56:21;;;;;;;9.30;3.83;;;;;;;8.23;75.81;99011.22;5111202;28;20020;-31
2022/04/03 02:58:48;;;;;;;5.47;2.65;;;;;;;8.17;75.09;99007.66;5110974;28;20034;-39
2022/04/03 03:01:13;;;;;;;6.30;2.85;;;;;;;8.29;74.19;99012.16;5111415;28;20041;-31
2022/04/03 03:03:39;;;;;;;7.18;2.80;;;;;;;8.09;75.40;99007.16;5110831;28;20027;-29
2022/04/03 03:06:04;;;;;;;7.20;3.90;;;;;;;8.36;74.91;99016.34;5110757;28;20023;-29
2022/04/03 03:08:30;;;;;;;6.93;3.60;;;;;;;8.25;74.52;99007.31;5111072;28;20062;-29
2022/04/03 03:10:55;;;;;;;7.10;3.80;;;;;;;8.08;74.89;98992.28;5110976;28;20019;-30
2022/04/03 03:13:21;;;;;;;8.25;4.55;;;;;;;8.16;74.29;99013.19;5110791;28;20032;-32
2022/04/03 03:15:46;;;;;;;6.13;3.40;;;;;;;8.05;74.00;99007.63;5111027;28;20020;-29
2022/04/03 03:18:12;;;;;;;6.38;3.63;;;;;;;8.21;73.77;99030.06;5110920;28;20028;-31
2022/04/03 03:20:37;;;;;;;8.13;3.97;;;;;;;8.09;74.76;99023.94;5110551;28;20130;-31
2022/04/03 03:23:03;;;;;;;6.47;4.32;;;;;;;7.91;75.28;99011.53;5110589;28;20027;-34
2022/04/03 03:25:29;;;;;;;6.97;4.45;;;;;;;8.08;75.23;99016.97;5110757;28;20047;-30
2022/04/03 03:27:54;;;;;;;6.28;3.72;;;;;;;8.10;75.44;99035.34;5110707;28;20645;-31
2022/04/03 03:30:21;;;;;;;8.88;3.55;;;;;;;8.17;75.00;99026.25;5110332;28;20030;-31
2022/04/03 03:32:46;;;;;;;5.40;3.33;;;;;;;8.33;74.76;99034.56;5091657;28;20037;-29
2022/04/03 03:35:12;;;;;;;5.85;3.60;;;;;;;8.38;74.97;99032.84;5091804;28;20032;-29
2022/04/03 03:37:39;;;;;;;7.88;3.70;;;;;;;8.10;76.04;99045.97;5092067;28;20065;-28
2022/04/03 03:40:06;;;;;;;5.50;3.15;;;;;;;7.91;76.55;99027.47;5091426;28;20035;-32
2022/04/03 03:42:32;;;;;;;6.85;3.67;;;;;;;8.16;76.61;99039.75;5091864;28;20077;-33
2022/04/03 03:44:59;;;;;;;6.32;3.50;;;;;;;8.21;75.72;99039.88;5091785;28;20023;-29
2022/04/03 03:47:25;;;;;;;8.43;4.68;;;;;;;8.00;75.67;99042.00;5091507;28;20499;-28
2022/04/03 03:49:51;;;;;;;7.50;4.07;;;;;;;7.70;76.79;99034.06;5091851;28;20027;-31
2022/04/03 03:52:16;;;;;;;25.27;11.50;;;;;;;7.59;77.69;99043.59;5110260;28;20024;-28
2022/04/03 03:54:42;;;;;;;23.67;12.48;;;;;;;7.57;78.18;99043.03;5110324;28;20034;-29
2022/04/03 03:57:07;;;;;;;11.23;7.38;;;;;;;7.55;79.05;99045.09;5109807;28;20461;-29
2022/04/03 03:59:33;;;;;;;10.02;4.85;;;;;;;7.60;79.31;99042.59;5091699;28;20858;-30
2022/04/03 04:02:00;;;;;;;9.93;4.00;;;;;;;7.69;79.86;99039.63;5109830;28;20028;-32
2022/04/03 04:04:25;;;;;;;8.10;4.13;;;;;;;7.65;79.46;99032.09;5109585;28;20031;-30
2022/04/03 04:06:50;;;;;;;7.15;3.50;;;;;;;7.67;80.68;99045.16;5110046;28;20030;-29
2022/04/03 04:09:16;;;;;;;12.05;5.57;;;;;;;7.81;79.65;99053.75;5110718;28;20399;-30
2022/04/03 04:11:42;;;;;;;103.78;35.35;;;;;;;7.55;80.96;99033.66;5110838;28;20502;-29
2022/04/03 04:14:07;;;;;;;14.75;7.43;;;;;;;7.11;80.33;99049.72;5110623;28;20077;-29
2022/04/03 04:16:33;;;;;;;11.68;5.50;;;;;;;6.83;81.23;99058.97;5092373;28;20625;-29
2022/04/03 04:18:59;;;;;;;7.78;4.28;;;;;;;6.48;82.71;99065.78;5091872;28;20020;-29
2022/04/03 04:21:24;;;;;;;5.22;3.00;;;;;;;6.14;81.37;99058.09;5092529;28;20092;-29
2022/04/03 04:23:50;;;;;;;6.32;3.30;;;;;;;6.37;80.90;99070.75;5110444;28;20786;-33
2022/04/03 04:26:15;;;;;;;7.20;3.50;;;;;;;6.44;80.95;99066.25;5091929;28;20487;-29
2022/04/03 04:28:41;;;;;;;6.85;3.75;;;;;;;6.79;80.39;99063.06;5110829;28;20442;-33
2022/04/03 04:31:07;;;;;;;5.63;3.17;;;;;;;6.59;80.60;99057.16;5091666;28;20031;-29
2022/04/03 04:33:33;;;;;;;7.50;3.28;;;;;;;6.32;81.75;99059.22;5110206;28;20043;-28
2022/04/03 04:35:58;;;;;;;6.28;3.05;;;;;;;6.93;80.33;99089.47;5110644;28;20503;-29
2022/04/03 04:38:24;;;;;;;5.32;3.33;;;;;;;6.95;80.49;99084.75;5092131;28;20043;-30
2022/04/03 04:40:50;;;;;;;6.50;4.38;;;;;;;7.18;79.02;99087.56;5110208;28;20073;-29
2022/04/03 04:43:15;;;;;;;14.63;8.65;;;;;;;6.93;80.73;99086.81;5110109;28;20027;-29
2022/04/03 04:45:40;;;;;;;14.70;10.63;;;;;;;7.25;79.43;99090.13;5091710;28;20034;-30
2022/04/03 04:48:06;;;;;;;6.60;3.90;;;;;;;6.96;80.26;99078.41;5091487;28;20078;-31
2022/04/03 04:50:32;;;;;;;9.68;5.72;;;;;;;7.20;79.96;99079.38;5110072;28;20093;-31
2022/04/03 04:52:58;;;;;;;15.45;10.43;;;;;;;7.32;80.21;99098.84;5109841;28;20028;-30
2022/04/03 04:55:24;;;;;;;23.95;13.75;;;;;;;7.19;80.55;99073.28;5091706;28;20058;-32
2022/04/03 04:57:52;;;;;;;30.30;15.18;;;;;;;7.09;81.13;99088.06;5091572;28;20032;-34
2022/04/03 05:00:20;;;;;;;25.48;13.20;;;;;;;7.26;82.32;99096.25;5091487;28;20024;-29
2022/04/03 05:02:46;;;;;;;16.30;9.15;;;;;;;7.43;82.65;99099.94;5091524;28;20036;-34
2022/04/03 05:05:17;;;;;;;11.63;7.07;;;;;;;7.39;82.72;99104.06;5091447;28;20038;-29
2022/04/03 05:07:44;;;;;;;9.25;4.90;;;;;;;7.55;82.17;99087.53;5109733;28;20027;-29
2022/04/03 05:10:12;;;;;;;7.43;4.28;;;;;;;7.65;81.67;99097.63;5091353;28;20087;-29
2022/04/03 05:12:38;;;;;;;7.55;4.25;;;;;;;7.69;81.91;99095.34;5091416;28;20411;-34
2022/04/03 05:15:06;;;;;;;7.97;4.80;;;;;;;7.79;82.61;99098.28;5090911;28;20499;-30
2022/04/03 05:17:32;;;;;;;8.75;4.72;;;;;;;7.62;83.27;99098.91;5091360;28;20473;-34
2022/04/03 05:19:59;;;;;;;7.63;4.32;;;;;;;7.77;83.04;99095.03;5108838;28;20027;-33
2022/04/03 05:22:26;;;;;;;7.53;4.55;;;;;;;8.24;81.59;99106.63;5090004;28;20032;-29
2022/04/03 05:24:51;;;;;;;7.90;4.28;;;;;;;8.18;81.13;99088.94;5108061;28;20035;-29
2022/04/03 05:27:17;;;;;;;7.57;5.10;;;;;;;8.50;79.83;99095.84;5108166;28;20897;-29
2022/04/03 05:29:43;;;;;;;10.38;6.05;;;;;;;8.61;80.68;99108.34;5107878;28;20388;-32
2022/04/03 05:32:09;;;;;;;9.13;6.03;;;;;;;8.69;80.65;99109.88;5108358;28;20411;-30
2022/04/03 05:34:34;;;;;;;10.13;6.70;;;;;;;8.88;80.54;99118.53;5108109;28;20051;-31
2022/04/03 05:37:00;;;;;;;37.38;15.30;;;;;;;8.91;80.00;99112.75;5107780;28;20031;-33
2022/04/03 05:39:25;;;;;;;33.17;17.52;;;;;;;8.89;80.92;99122.81;5108114;28;20035;-29
2022/04/03 05:41:54;;;;;;;22.98;11.48;;;;;;;8.93;80.99;99134.59;5089679;28;20020;-29
2022/04/03 05:44:20;;;;;;;37.67;18.17;;;;;;;8.89;80.64;99123.63;5090088;28;20671;-30
2022/04/03 05:46:45;;;;;;;29.20;17.63;;;;;;;9.16;80.13;99129.28;5108032;28;20031;-29
2022/04/03 05:49:11;;;;;;;14.23;9.30;;;;;;;9.36;79.98;99150.22;5089740;28;20091;-31
2022/04/03 05:51:37;;;;;;;15.90;10.68;;;;;;;9.58;78.58;99157.56;5107904;28;20388;-29
2022/04/03 05:54:03;;;;;;;12.25;7.88;;;;;;;9.45;79.04;99145.34;5107957;28;20035;-36
2022/04/03 05:56:31;;;;;;;11.52;7.22;;;;;;;9.63;80.12;99160.34;5106557;28;20030;-30
2022/04/03 05:58:57;;;;;;;8.40;4.97;;;;;;;9.79;77.63;99142.84;5107883;28;20027;-31
2022/04/03 06:01:23;;;;;;;8.60;5.55;;;;;;;10.22;77.00;99173.50;5108413;28;20031;-30
2022/04/03 06:03:49;;;;;;;9.55;5.72;;;;;;;10.06;76.96;99159.06;5109713;28;20031;-31
2022/04/03 06:06:14;;;;;;;8.63;4.88;;;;;;;10.27;76.01;99177.03;5109892;28;20027;-32
2022/04/03 06:08:40;;;;;;;8.63;5.75;;;;;;;10.04;77.12;99188.59;5109206;28;20042;-33
2022/04/03 06:11:06;;;;;;;8.43;4.97;;;;;;;9.93;76.84;99169.97;5127618;28;20073;-29
2022/04/03 06:13:31;;;;;;;8.93;5.00;;;;;;;10.06;76.88;99197.16;5109356;28;20031;-31
2022/04/03 06:15:57;;;;;;;11.35;6.30;;;;;;;9.97;76.61;99201.25;5128111;28;20091;-32
2022/04/03 06:18:23;;;;;;;9.55;5.95;;;;;;;9.68;77.51;99215.53;5127995;28;20099;-30
2022/04/03 06:20:49;;;;;;;12.15;7.53;;;;;;;9.64;77.66;99200.06;5127791;28;20031;-33
2022/04/03 06:23:16;;;;;;;12.13;7.10;;;;;;;9.77;77.42;99216.81;5127851;28;20262;-30
2022/04/03 06:25:43;;;;;;;15.20;9.18;;;;;;;9.77;78.28;99214.16;5127896;28;20026;-31
2022/04/03 06:28:09;;;;;;;15.40;9.43;;;;;;;9.69;78.27;99195.88;5109413;28;20035;-29
2022/04/03 06:30:35;;;;;;;27.65;11.32;;;;;;;10.01;77.52;99213.06;5126477;28;20027;-31
2022/04/03 06:33:01;;;;;;;16.17;9.00;;;;;;;9.95;78.21;99203.34;5127833;28;20055;-32
2022/04/03 06:35:26;;;;;;;14.27;9.80;;;;;;;9.99;77.81;99217.81;5127903;28;20398;-29
2022/04/03 06:37:52;;;;;;;11.18;7.55;;;;;;;10.01;75.38;99198.91;5128100;28;20038;-31
2022/04/03 06:40:17;;;;;;;10.02;6.05;;;;;;;9.81;75.88;99207.31;5128040;28;20027;-31
2022/04/03 06:42:43;;;;;;;11.48;6.63;;;;;;;9.77;76.07;99195.53;5109071;28;20054;-29
2022/04/03 06:45:09;;;;;;;17.73;10.55;;;;;;;9.73;74.28;99192.50;5127958;28;20038;-29
2022/04/03 06:47:36;;;;;;;12.88;7.82;;;;;;;9.98;74.56;99199.41;5109272;28;20076;-30
2022/04/03 06:50:03;;;;;;;11.32;6.25;;;;;;;10.36;72.94;99219.31;5109271;28;20034;-28
2022/04/03 06:52:29;;;;;;;20.00;12.73;;;;;;;11.00;71.87;99221.78;5101415;28;20031;-29
2022/04/03 06:54:54;;;;;;;11.20;6.60;;;;;;;11.23;69.33;99226.94;5114582;28;20100;-35
2022/04/03 06:57:20;;;;;;;9.27;4.90;;;;;;;11.51;69.06;99227.91;5127207;28;20080;-29
2022/04/03 06:59:46;;;;;;;5.95;3.17;;;;;;;11.48;64.10;99225.72;5128031;28;20038;-29
2022/04/03 07:02:12;;;;;;;8.93;4.45;;;;;;;11.60;65.14;99231.75;5109038;28;20027;-30
2022/04/03 07:04:37;;;;;;;7.68;3.70;;;;;;;11.53;65.30;99212.44;5108880;28;20027;-31
2022/04/03 07:07:03;;;;;;;7.78;2.47;;;;;;;11.74;60.89;99236.75;5108844;28;20174;-29
2022/04/03 07:09:29;;;;;;;5.60;2.22;;;;;;;11.92;60.65;99247.19;5108496;28;20172;-29
2022/04/03 07:11:54;;;;;;;3.75;1.75;;;;;;;12.15;58.54;99238.09;5127556;28;20110;-36
2022/04/03 07:14:20;;;;;;;4.82;1.45;;;;;;;12.23;56.01;99245.69;5107474;28;20058;-32
2022/04/03 07:16:45;;;;;;;3.63;1.35;;;;;;;12.18;55.94;99252.84;5111217;28;20027;-31
2022/04/03 07:19:11;;;;;;;2.97;1.42;;;;;;;12.08;55.84;99266.09;5110390;28;20107;-30
2022/04/03 07:21:37;;;;;;;7.07;1.73;;;;;;;12.24;56.08;99268.69;5110557;28;20158;-29
2022/04/03 07:24:04;;;;;;;7.13;2.45;;;;;;;12.17;55.59;99259.25;5091817;28;20024;-29
2022/04/03 07:26:30;;;;;;;4.18;1.25;;;;;;;12.32;55.92;99264.78;5091534;28;20085;-36
2022/04/03 07:28:56;;;;;;;2.85;1.40;;;;;;;12.21;55.99;99245.13;5091821;28;20046;-29
2022/04/03 07:31:22;;;;;;;5.18;1.65;;;;;;;12.59;55.46;99247.97;5092100;28;20027;-29
2022/04/03 07:33:47;;;;;;;4.75;1.38;;;;;;;12.57;54.23;99244.72;5110020;28;20054;-29
2022/04/03 07:36:13;;;;;;;3.78;1.50;;;;;;;12.59;52.02;99258.66;5109873;28;20027;-30
2022/04/03 07:38:38;;;;;;;2.58;1.30;;;;;;;12.81;53.86;99266.59;5110122;28;20031;-29
2022/04/03 07:41:04;;;;;;;1.95;1.10;;;;;;;12.93;52.00;99279.84;5091426;28;20126;-32
2022/04/03 07:43:29;;;;;;;3.10;1.00;;;;;;;13.10;51.76;99283.22;5091885;28;20031;-28
2022/04/03 07:45:55;;;;;;;2.08;1.20;;;;;;;13.34;50.26;99269.50;5110064;28;20027;-32
2022/04/03 07:48:21;;;;;;;4.53;1.08;;;;;;;13.63;49.52;99286.06;5109967;28;20040;-28
2022/04/03 07:50:46;;;;;;;3.22;1.30;;;;;;;13.36;51.90;99283.44;5109749;28;20094;-31
2022/04/03 07:53:12;;;;;;;2.58;1.10;;;;;;;13.50;51.47;99289.19;5109528;28;20036;-30
2022/04/03 07:55:37;;;;;;;2.13;1.00;;;;;;;13.73;52.83;99296.03;5091155;28;20062;-32
2022/04/03 07:58:03;;;;;;;2.65;1.00;;;;;;;13.71;51.38;99282.06;5109560;28;20034;-30
2022/04/03 08:00:29;;;;;;;2.88;1.55;;;;;;;13.80;50.17;99272.50;5109673;28;20061;-30
2022/04/03 08:02:54;;;;;;;2.80;0.98;;;;;;;14.15;49.00;99295.19;5109260;28;20432;-28
2022/04/03 08:05:20;;;;;;;1.52;0.70;;;;;;;14.53;46.55;99290.53;5109526;28;20028;-34
2022/04/03 08:07:48;;;;;;;3.33;1.10;;;;;;;14.99;47.42;99293.31;5090881;28;20035;-29
2022/04/03 08:10:15;;;;;;;5.40;1.65;;;;;;;14.93;45.30;99275.59;5090789;28;20030;-28
2022/04/03 08:12:43;;;;;;;1.80;0.90;;;;;;;14.70;46.09;99279.59;5091258;28;20085;-32
2022/04/03 08:15:10;;;;;;;1.17;0.63;;;;;;;14.89;43.39;99288.75;5090917;28;20115;-29
2022/04/03 08:17:38;;;;;;;2.08;0.80;;;;;;;14.97;44.22;99292.78;5109236;28;20031;-29
2022/04/03 08:20:11;;;;;;;2.92;0.63;;;;;;;14.54;41.60;99284.88;5090884;28;20023;-29
2022/04/03 08:22:37;;;;;;;1.60;0.60;;;;;;;14.52;43.48;99305.78;5109180;28;20793;-30
2022/04/03 08:25:05;;;;;;;2.05;0.80;;;;;;;14.65;44.18;99294.63;5090326;28;20455;-29
2022/04/03 08:27:54;;;;;;;4.13;0.73;;;;;;;14.69;43.59;99297.56;5109336;28;20027;-29
2022/04/03 08:30:36;;;;;;;1.35;0.65;;;;;;;15.02;42.75;99293.59;5107573;28;20027;-29
2022/04/03 08:33:04;;;;;;;3.80;0.95;;;;;;;15.43;43.12;99292.81;5090202;28;20040;-29
2022/04/03 08:35:31;;;;;;;5.85;1.10;;;;;;;14.97;41.70;99293.59;5090592;28;20451;-31
2022/04/03 08:37:58;;;;;;;5.38;1.77;;;;;;;15.13;43.40;99272.94;5109248;28;20039;-35
2022/04/03 08:40:26;;;;;;;3.05;0.70;;;;;;;15.57;42.83;99282.28;5090443;28;20499;-31
2022/04/03 08:42:54;;;;;;;2.33;0.77;;;;;;;15.20;39.29;99273.47;5090314;28;20414;-29
2022/04/03 08:45:21;;;;;;;2.35;0.70;;;;;;;15.29;41.93;99271.06;5090240;28;20034;-32
2022/04/03 08:47:51;;;;;;;3.95;1.10;;;;;;;15.65;41.05;99274.50;5090036;28;20027;-31
2022/04/03 08:50:19;;;;;;;2.83;1.00;;;;;;;15.75;37.20;99289.03;5108680;28;20031;-35
2022/04/03 08:52:47;;;;;;;1.23;0.50;;;;;;;15.62;37.07;99285.00;5089574;28;20507;-29
2022/04/03 08:55:13;;;;;;;2.55;0.63;;;;;;;15.84;37.17;99272.06;5090040;28;20127;-32
2022/04/03 08:57:38;;;;;;;1.90;0.65;;;;;;;15.56;37.71;99268.06;5107195;28;20624;-30
2022/04/03 09:00:05;;;;;;;1.20;0.50;;;;;;;15.92;36.05;99288.75;5090207;28;20030;-29
2022/04/03 09:02:31;;;;;;;2.88;1.25;;;;;;;15.45;35.68;99301.41;5108490;28;20519;-31
2022/04/03 09:04:56;;;;;;;1.90;0.50;;;;;;;15.35;34.94;99290.66;5108420;28;20026;-33
2022/04/03 09:07:22;;;;;;;8.63;4.28;;;;;;;15.62;36.99;99291.16;5108267;28;20058;-36
2022/04/03 09:10:20;;;;;;;7.25;3.92;;;;;;;15.84;34.58;99290.09;5108674;28;20462;-31
2022/04/03 09:12:47;;;;;;;2.40;1.00;;;;;;;15.80;36.51;99287.13;5072981;28;20048;-29
2022/04/03 09:15:15;;;;;;;2.85;1.42;;;;;;;15.79;35.40;99300.84;5107093;28;20022;-29
2022/04/03 09:17:44;;;;;;;6.93;2.58;;;;;;;15.62;35.33;99323.41;5108185;28;20027;-29
2022/04/03 09:20:12;;;;;;;6.60;2.83;;;;;;;15.21;36.67;99283.13;5089716;28;20020;-29
2022/04/03 09:22:39;;;;;;;5.95;2.72;;;;;;;15.78;37.53;99293.88;5089304;28;20126;-41
2022/04/03 09:25:07;;;;;;;9.50;3.90;;;;;;;16.13;36.88;99305.63;5089165;28;20032;-34
2022/04/03 09:27:34;;;;;;;39.22;18.40;;;;;;;16.44;36.99;99317.84;5089421;28;20027;-30
2022/04/03 09:30:07;;;;;;;14.10;5.23;;;;;;;16.07;34.78;99308.31;5089492;28;20027;-29
2022/04/03 09:32:54;;;;;;;7.57;2.40;;;;;;;15.81;34.97;99325.56;5106165;28;20020;-30
2022/04/03 09:35:24;;;;;;;19.08;10.27;;;;;;;15.81;35.84;99328.25;5107820;28;20035;-30
2022/04/03 09:38:08;;;;;;;25.90;13.32;;;;;;;16.36;36.04;99336.47;5107062;28;20100;-29
2022/04/03 09:40:35;;;;;;;34.22;15.82;;;;;;;16.62;37.05;99323.72;5107635;28;20539;-34
2022/04/03 09:43:24;;;;;;;8.73;3.67;;;;;;;16.31;35.12;99326.53;5110642;27;20041;-30
2022/04/03 09:45:54;;;;;;;11.15;5.45;;;;;;;16.27;36.34;99345.09;5114340;27;20118;-37
2022/04/03 09:48:31;;;;;;;11.95;5.63;;;;;;;15.76;36.61;99339.03;5098362;28;20058;-30
2022/04/03 09:51:00;;;;;;;20.40;9.38;;;;;;;15.31;36.92;99338.75;5116445;27;20031;-30
2022/04/03 09:53:39;;;;;;;12.85;5.72;;;;;;;15.74;35.60;99358.13;5115723;27;20117;-30
2022/04/03 09:56:04;;;;;;;9.93;4.68;;;;;;;15.91;34.95;99352.44;5117565;27;20024;-33
2022/04/03 09:58:30;;;;;;;3.65;1.38;;;;;;;16.06;32.19;99349.75;5115577;27;20023;-29
2022/04/03 10:00:56;;;;;;;3.40;0.80;;;;;;;16.49;32.68;99352.03;5116890;28;20023;-31
2022/04/03 10:03:23;;;;;;;4.20;0.80;;;;;;;16.78;32.98;99333.31;5123084;28;20061;-30
2022/04/03 10:05:49;;;;;;;2.27;0.70;;;;;;;16.81;31.79;99327.38;5109495;28;20031;-29
2022/04/03 10:08:15;;;;;;;0.82;0.40;;;;;;;16.93;31.46;99350.50;5128036;28;20026;-34
2022/04/03 10:10:41;;;;;;;1.77;0.82;;;;;;;17.19;32.82;99343.88;5127912;28;20035;-30
2022/04/03 10:13:06;;;;;;;1.08;0.60;;;;;;;17.55;31.92;99350.88;5127703;28;20019;-33
2022/04/03 10:15:32;;;;;;;2.85;0.63;;;;;;;18.14;31.30;99325.50;5109343;28;20474;-32
2022/04/03 10:17:57;;;;;;;0.73;0.30;;;;;;;18.44;33.60;99339.75;5127800;28;20034;-29
2022/04/03 10:20:28;;;;;;;1.80;0.63;;;;;;;18.04;31.02;99339.09;5109282;28;20054;-31
2022/04/03 10:23:05;;;;;;;1.45;0.57;;;;;;;18.20;33.16;99348.66;5109167;28;20095;-32
2022/04/03 10:25:36;;;;;;;1.17;0.40;;;;;;;18.24;33.58;99341.59;5109210;28;20023;-29
2022/04/03 10:28:05;;;;;;;1.60;0.70;;;;;;;18.21;32.14;99360.25;5109436;28;20023;-30
2022/04/03 10:30:36;;;;;;;2.80;0.70;;;;;;;17.19;33.47;99353.84;5127709;28;20470;-29
2022/04/03 10:33:02;;;;;;;3.08;0.90;;;;;;;17.64;33.06;99355.38;5108557;28;20446;-29
2022/04/03 10:35:27;;;;;;;1.48;0.60;;;;;;;17.81;32.38;99356.84;5109364;28;20084;-30
2022/04/03 10:38:48;;;;;;;1.42;0.52;;;;;;;17.13;32.29;99344.19;5127470;28;20034;-34
2022/04/03 10:41:31;;;;;;;1.33;0.57;;;;;;;17.90;33.23;99352.50;5063782;28;20121;-37
2022/04/03 10:44:13;;;;;;;2.20;0.90;;;;;;;17.05;31.90;99354.47;5103524;28;20043;-32
2022/04/03 10:47:03;;;;;;;2.65;1.00;;;;;;;17.43;33.21;99353.94;5127620;28;20079;-32
2022/04/03 10:49:59;;;;;;;1.00;0.70;;;;;;;18.05;31.95;99352.31;5131273;27;20027;-29
2022/04/03 10:52:48;;;;;;;2.88;0.70;;;;;;;18.07;32.21;99352.84;5131753;27;20038;-30
2022/04/03 10:55:21;;;;;;;2.42;0.95;;;;;;;17.62;31.99;99335.97;5119716;27;20435;-37
2022/04/03 10:57:49;;;;;;;2.88;0.90;;;;;;;18.56;33.04;99355.53;5113021;27;20016;-30
2022/04/03 11:00:14;;;;;;;1.63;0.70;;;;;;;18.41;33.71;99357.34;5112735;27;20530;-32
2022/04/03 11:02:49;;;;;;;3.55;1.40;;;;;;;18.78;31.40;99333.38;5131232;27;20088;-30
2022/04/03 11:05:21;;;;;;;2.28;1.08;;;;;;;18.94;29.80;99347.50;5112518;27;20080;-32
2022/04/03 11:07:51;;;;;;;4.53;1.40;;;;;;;18.93;29.65;99337.81;5131392;27;20062;-31
2022/04/03 11:10:52;;;;;;;2.83;1.13;;;;;;;18.92;32.61;99355.09;5112684;27;20032;-32
2022/04/03 11:13:23;;;;;;;3.00;0.73;;;;;;;18.44;32.08;99354.03;5130829;27;20390;-33
2022/04/03 11:15:54;;;;;;;4.35;1.00;;;;;;;18.87;31.82;99359.47;5131465;27;20030;-30
2022/04/03 11:18:31;;;;;;;0.98;0.60;;;;;;;19.00;30.91;99352.56;5131231;27;20019;-30
2022/04/03 11:21:10;;;;;;;1.23;0.80;;;;;;;19.51;30.41;99329.31;5130931;27;20550;-31
2022/04/03 11:23:49;;;;;;;2.70;1.00;;;;;;;19.59;29.91;99354.88;5112541;27;20407;-34
2022/04/03 11:26:18;;;;;;;2.05;0.90;;;;;;;18.83;30.33;99342.25;5112622;27;20034;-34
2022/04/03 11:28:45;;;;;;;4.20;1.15;;;;;;;18.69;30.96;99365.63;5112178;27;20800;-30
2022/04/03 11:31:11;;;;;;;1.58;0.50;;;;;;;19.07;30.62;99354.88;5111903;27;20031;-32
2022/04/03 11:33:38;;;;;;;1.45;0.70;;;;;;;19.11;29.04;99369.41;5111952;27;20090;-35
2022/04/03 11:36:08;;;;;;;1.65;0.80;;;;;;;18.45;29.49;99341.38;5112135;27;20110;-30
2022/04/03 11:38:44;;;;;;;0.88;0.45;;;;;;;19.25;29.04;99337.84;5130489;27;20388;-29